sensor_id;sensor_type;location;lat;lon;timestamp;P1;durP1;ratioP1;P2;durP2;ratioP2
25279;SDS011;13225;47.804;12.116;2023-03-01T00:01:24;45.50;;;20.38;;
25279;SDS011;13225;47.804;12.116;2023-03-01T00:03:52;48.63;;;21.30;;
25279;SDS011;13225;47.804;12.116;2023-03-01T00:06:19;45.28;;;20.88;;
25279;SDS011;13225;47.804;12.116;2023-03-01T00:08:45;43.70;;;21.00;;
25279;SDS011;13225;47.804;12.116;2023-03-01T00:11:16;51.78;;;21.02;;
25279;SDS011;13225;47.804;12.116;2023-03-01T00:13:45;41.83;;;20.95;;
25279;SDS011;13225;47.804;12.116;2023-03-01T00:16:13;50.40;;;22.92;;
25279;SDS011;13225;47.804;12.116;2023-03-01T00:18:44;52.72;;;22.20;;
25279;SDS011;13225;47.804;12.116;2023-03-01T00:21:09;47.67;;;21.70;;
25279;SDS011;13225;47.804;12.116;2023-03-01T00:23:35;52.22;;;22.00;;
25279;SDS011;13225;47.804;12.116;2023-03-01T00:26:01;49.50;;;21.85;;
25279;SDS011;13225;47.804;12.116;2023-03-01T00:28:27;47.65;;;20.98;;
25279;SDS011;13225;47.804;12.116;2023-03-01T00:30:53;45.92;;;21.23;;
25279;SDS011;13225;47.804;12.116;2023-03-01T00:33:18;46.67;;;20.63;;
25279;SDS011;13225;47.804;12.116;2023-03-01T00:35:44;51.63;;;22.70;;
25279;SDS011;13225;47.804;12.116;2023-03-01T00:38:10;51.88;;;22.58;;
25279;SDS011;13225;47.804;12.116;2023-03-01T00:40:36;48.45;;;22.73;;
25279;SDS011;13225;47.804;12.116;2023-03-01T00:43:02;43.22;;;20.55;;
25279;SDS011;13225;47.804;12.116;2023-03-01T00:45:28;44.63;;;18.90;;
25279;SDS011;13225;47.804;12.116;2023-03-01T00:47:58;46.97;;;21.48;;
25279;SDS011;13225;47.804;12.116;2023-03-01T00:50:23;45.90;;;20.27;;
25279;SDS011;13225;47.804;12.116;2023-03-01T00:52:53;46.95;;;21.23;;
25279;SDS011;13225;47.804;12.116;2023-03-01T00:55:20;50.92;;;21.73;;
25279;SDS011;13225;47.804;12.116;2023-03-01T00:57:46;46.25;;;20.65;;
25279;SDS011;13225;47.804;12.116;2023-03-01T01:00:11;48.33;;;20.80;;
25279;SDS011;13225;47.804;12.116;2023-03-01T01:02:37;47.55;;;21.48;;
25279;SDS011;13225;47.804;12.116;2023-03-01T01:05:03;51.17;;;21.67;;
25279;SDS011;13225;47.804;12.116;2023-03-01T01:07:29;49.95;;;21.45;;
25279;SDS011;13225;47.804;12.116;2023-03-01T01:09:55;54.25;;;22.45;;
25279;SDS011;13225;47.804;12.116;2023-03-01T01:12:21;52.83;;;23.02;;
25279;SDS011;13225;47.804;12.116;2023-03-01T01:14:46;52.28;;;22.67;;
25279;SDS011;13225;47.804;12.116;2023-03-01T01:17:12;54.85;;;23.10;;
25279;SDS011;13225;47.804;12.116;2023-03-01T01:19:37;49.53;;;22.95;;
25279;SDS011;13225;47.804;12.116;2023-03-01T01:22:03;54.33;;;23.80;;
25279;SDS011;13225;47.804;12.116;2023-03-01T01:24:29;49.95;;;22.67;;
25279;SDS011;13225;47.804;12.116;2023-03-01T01:26:55;48.88;;;22.30;;
25279;SDS011;13225;47.804;12.116;2023-03-01T01:29:20;51.70;;;23.88;;
25279;SDS011;13225;47.804;12.116;2023-03-01T01:31:46;51.55;;;22.85;;
25279;SDS011;13225;47.804;12.116;2023-03-01T01:34:16;58.60;;;24.45;;
25279;SDS011;13225;47.804;12.116;2023-03-01T01:36:43;54.35;;;24.02;;
25279;SDS011;13225;47.804;12.116;2023-03-01T01:39:09;55.10;;;24.10;;
25279;SDS011;13225;47.804;12.116;2023-03-01T01:41:38;54.50;;;23.63;;
25279;SDS011;13225;47.804;12.116;2023-03-01T01:46:41;53.75;;;23.73;;
25279;SDS011;13225;47.804;12.116;2023-03-01T01:49:19;52.88;;;23.70;;
25279;SDS011;13225;47.804;12.116;2023-03-01T01:51:49;50.35;;;23.27;;
25279;SDS011;13225;47.804;12.116;2023-03-01T01:54:19;49.92;;;24.10;;
25279;SDS011;13225;47.804;12.116;2023-03-01T01:56:52;54.38;;;24.30;;
25279;SDS011;13225;47.804;12.116;2023-03-01T01:59:25;55.50;;;24.42;;
25279;SDS011;13225;47.804;12.116;2023-03-01T02:01:54;53.50;;;24.35;;
25279;SDS011;13225;47.804;12.116;2023-03-01T02:04:21;53.42;;;23.45;;
25279;SDS011;13225;47.804;12.116;2023-03-01T02:07:21;52.30;;;24.25;;
25279;SDS011;13225;47.804;12.116;2023-03-01T02:09:45;54.15;;;25.08;;
25279;SDS011;13225;47.804;12.116;2023-03-01T02:12:13;55.42;;;24.58;;
25279;SDS011;13225;47.804;12.116;2023-03-01T02:14:40;62.95;;;27.58;;
25279;SDS011;13225;47.804;12.116;2023-03-01T02:17:05;60.88;;;25.80;;
25279;SDS011;13225;47.804;12.116;2023-03-01T02:19:36;56.80;;;25.88;;
25279;SDS011;13225;47.804;12.116;2023-03-01T02:27:26;56.05;;;24.60;;
25279;SDS011;13225;47.804;12.116;2023-03-01T02:30:04;56.40;;;24.45;;
25279;SDS011;13225;47.804;12.116;2023-03-01T02:32:31;54.42;;;24.33;;
25279;SDS011;13225;47.804;12.116;2023-03-01T02:34:57;56.13;;;25.33;;
25279;SDS011;13225;47.804;12.116;2023-03-01T02:37:23;54.90;;;24.15;;
25279;SDS011;13225;47.804;12.116;2023-03-01T02:39:58;51.33;;;22.85;;
25279;SDS011;13225;47.804;12.116;2023-03-01T02:42:31;48.78;;;21.98;;
25279;SDS011;13225;47.804;12.116;2023-03-01T02:45:01;49.85;;;21.58;;
25279;SDS011;13225;47.804;12.116;2023-03-01T02:47:27;46.35;;;20.95;;
25279;SDS011;13225;47.804;12.116;2023-03-01T02:49:53;47.22;;;21.35;;
25279;SDS011;13225;47.804;12.116;2023-03-01T02:55:08;47.15;;;21.77;;
25279;SDS011;13225;47.804;12.116;2023-03-01T02:57:40;43.55;;;21.67;;
25279;SDS011;13225;47.804;12.116;2023-03-01T03:00:09;46.67;;;21.05;;
25279;SDS011;13225;47.804;12.116;2023-03-01T03:02:44;48.55;;;22.00;;
25279;SDS011;13225;47.804;12.116;2023-03-01T03:05:12;49.00;;;22.10;;
25279;SDS011;13225;47.804;12.116;2023-03-01T03:07:54;47.92;;;22.38;;
25279;SDS011;13225;47.804;12.116;2023-03-01T03:10:24;56.45;;;24.17;;
25279;SDS011;13225;47.804;12.116;2023-03-01T03:12:52;52.42;;;23.00;;
25279;SDS011;13225;47.804;12.116;2023-03-01T03:15:20;52.30;;;23.73;;
25279;SDS011;13225;47.804;12.116;2023-03-01T03:17:47;48.80;;;21.75;;
25279;SDS011;13225;47.804;12.116;2023-03-01T03:20:14;47.65;;;22.77;;
25279;SDS011;13225;47.804;12.116;2023-03-01T03:22:44;50.78;;;22.70;;
25279;SDS011;13225;47.804;12.116;2023-03-01T03:25:11;54.88;;;24.42;;
25279;SDS011;13225;47.804;12.116;2023-03-01T03:27:40;50.47;;;23.05;;
25279;SDS011;13225;47.804;12.116;2023-03-01T03:30:08;49.78;;;23.27;;
25279;SDS011;13225;47.804;12.116;2023-03-01T03:32:36;48.95;;;23.40;;
25279;SDS011;13225;47.804;12.116;2023-03-01T03:35:07;51.95;;;23.30;;
25279;SDS011;13225;47.804;12.116;2023-03-01T03:37:35;31.10;;;15.10;;
25279;SDS011;13225;47.804;12.116;2023-03-01T03:40:23;37.85;;;17.25;;
25279;SDS011;13225;47.804;12.116;2023-03-01T03:42:50;33.25;;;14.88;;
25279;SDS011;13225;47.804;12.116;2023-03-01T03:45:16;34.17;;;16.77;;
25279;SDS011;13225;47.804;12.116;2023-03-01T03:47:42;36.30;;;16.27;;
25279;SDS011;13225;47.804;12.116;2023-03-01T03:50:09;33.22;;;13.57;;
25279;SDS011;13225;47.804;12.116;2023-03-01T03:52:38;32.28;;;15.88;;
25279;SDS011;13225;47.804;12.116;2023-03-01T03:55:05;31.38;;;16.00;;
25279;SDS011;13225;47.804;12.116;2023-03-01T03:57:35;35.08;;;16.13;;
25279;SDS011;13225;47.804;12.116;2023-03-01T04:00:16;33.70;;;16.38;;
25279;SDS011;13225;47.804;12.116;2023-03-01T04:02:43;32.03;;;14.55;;
25279;SDS011;13225;47.804;12.116;2023-03-01T04:05:11;33.63;;;16.65;;
25279;SDS011;13225;47.804;12.116;2023-03-01T04:07:38;38.45;;;17.50;;
25279;SDS011;13225;47.804;12.116;2023-03-01T04:10:05;37.63;;;15.68;;
25279;SDS011;13225;47.804;12.116;2023-03-01T04:12:33;34.67;;;15.98;;
25279;SDS011;13225;47.804;12.116;2023-03-01T04:15:00;33.60;;;15.40;;
25279;SDS011;13225;47.804;12.116;2023-03-01T04:17:26;38.60;;;17.10;;
25279;SDS011;13225;47.804;12.116;2023-03-01T04:19:52;34.42;;;15.55;;
25279;SDS011;13225;47.804;12.116;2023-03-01T04:22:18;35.60;;;16.35;;
25279;SDS011;13225;47.804;12.116;2023-03-01T04:24:44;33.90;;;15.20;;
25279;SDS011;13225;47.804;12.116;2023-03-01T04:27:10;35.35;;;16.08;;
25279;SDS011;13225;47.804;12.116;2023-03-01T04:29:36;33.88;;;17.15;;
25279;SDS011;13225;47.804;12.116;2023-03-01T04:32:02;35.55;;;17.45;;
25279;SDS011;13225;47.804;12.116;2023-03-01T04:34:28;31.13;;;16.42;;
25279;SDS011;13225;47.804;12.116;2023-03-01T04:36:54;30.77;;;16.15;;
25279;SDS011;13225;47.804;12.116;2023-03-01T04:39:20;32.05;;;15.07;;
25279;SDS011;13225;47.804;12.116;2023-03-01T04:41:46;38.60;;;17.73;;
25279;SDS011;13225;47.804;12.116;2023-03-01T04:44:12;34.92;;;16.70;;
25279;SDS011;13225;47.804;12.116;2023-03-01T04:46:38;37.95;;;17.52;;
25279;SDS011;13225;47.804;12.116;2023-03-01T04:49:04;61.83;;;29.23;;
25279;SDS011;13225;47.804;12.116;2023-03-01T04:51:30;39.80;;;18.33;;
25279;SDS011;13225;47.804;12.116;2023-03-01T04:53:57;35.42;;;16.88;;
25279;SDS011;13225;47.804;12.116;2023-03-01T04:56:23;32.58;;;16.95;;
25279;SDS011;13225;47.804;12.116;2023-03-01T04:58:48;33.78;;;16.80;;
25279;SDS011;13225;47.804;12.116;2023-03-01T05:01:15;34.85;;;18.55;;
25279;SDS011;13225;47.804;12.116;2023-03-01T05:03:51;36.13;;;17.10;;
25279;SDS011;13225;47.804;12.116;2023-03-01T05:06:18;36.40;;;16.75;;
25279;SDS011;13225;47.804;12.116;2023-03-01T05:08:44;35.15;;;17.73;;
25279;SDS011;13225;47.804;12.116;2023-03-01T05:11:10;38.67;;;17.10;;
25279;SDS011;13225;47.804;12.116;2023-03-01T05:13:37;36.33;;;16.65;;
25279;SDS011;13225;47.804;12.116;2023-03-01T05:16:04;36.58;;;16.02;;
25279;SDS011;13225;47.804;12.116;2023-03-01T05:18:34;40.13;;;18.58;;
25279;SDS011;13225;47.804;12.116;2023-03-01T05:21:04;36.25;;;15.57;;
25279;SDS011;13225;47.804;12.116;2023-03-01T05:23:32;36.13;;;17.00;;
25279;SDS011;13225;47.804;12.116;2023-03-01T05:25:59;35.38;;;16.40;;
25279;SDS011;13225;47.804;12.116;2023-03-01T05:28:26;39.83;;;18.42;;
25279;SDS011;13225;47.804;12.116;2023-03-01T05:30:53;41.00;;;18.75;;
25279;SDS011;13225;47.804;12.116;2023-03-01T05:33:19;36.47;;;17.52;;
25279;SDS011;13225;47.804;12.116;2023-03-01T05:35:46;27.83;;;12.30;;
25279;SDS011;13225;47.804;12.116;2023-03-01T05:38:13;23.60;;;10.18;;
25279;SDS011;13225;47.804;12.116;2023-03-01T05:40:40;34.28;;;17.05;;
25279;SDS011;13225;47.804;12.116;2023-03-01T05:43:06;36.05;;;16.42;;
25279;SDS011;13225;47.804;12.116;2023-03-01T05:45:32;39.15;;;18.58;;
25279;SDS011;13225;47.804;12.116;2023-03-01T05:48:00;31.58;;;15.13;;
25279;SDS011;13225;47.804;12.116;2023-03-01T05:50:27;26.77;;;12.82;;
25279;SDS011;13225;47.804;12.116;2023-03-01T05:53:02;37.08;;;17.98;;
25279;SDS011;13225;47.804;12.116;2023-03-01T05:55:32;34.67;;;15.85;;
25279;SDS011;13225;47.804;12.116;2023-03-01T05:57:59;17.80;;;9.27;;
25279;SDS011;13225;47.804;12.116;2023-03-01T06:00:27;18.52;;;7.95;;
25279;SDS011;13225;47.804;12.116;2023-03-01T06:02:54;38.97;;;17.65;;
25279;SDS011;13225;47.804;12.116;2023-03-01T06:05:20;37.10;;;16.23;;
25279;SDS011;13225;47.804;12.116;2023-03-01T06:07:45;37.03;;;17.33;;
25279;SDS011;13225;47.804;12.116;2023-03-01T06:10:11;39.83;;;17.08;;
25279;SDS011;13225;47.804;12.116;2023-03-01T06:12:38;39.15;;;17.88;;
25279;SDS011;13225;47.804;12.116;2023-03-01T06:15:05;39.83;;;19.23;;
25279;SDS011;13225;47.804;12.116;2023-03-01T06:17:33;39.03;;;19.02;;
25279;SDS011;13225;47.804;12.116;2023-03-01T06:20:24;37.22;;;18.25;;
25279;SDS011;13225;47.804;12.116;2023-03-01T06:22:49;31.27;;;15.23;;
25279;SDS011;13225;47.804;12.116;2023-03-01T06:25:16;18.75;;;10.30;;
25279;SDS011;13225;47.804;12.116;2023-03-01T06:27:44;47.55;;;19.23;;
25279;SDS011;13225;47.804;12.116;2023-03-01T06:30:10;41.17;;;18.67;;
25279;SDS011;13225;47.804;12.116;2023-03-01T06:32:38;34.42;;;15.50;;
25279;SDS011;13225;47.804;12.116;2023-03-01T06:35:07;41.63;;;19.13;;
25279;SDS011;13225;47.804;12.116;2023-03-01T06:37:33;41.05;;;18.00;;
25279;SDS011;13225;47.804;12.116;2023-03-01T06:40:00;43.85;;;20.05;;
25279;SDS011;13225;47.804;12.116;2023-03-01T06:42:29;40.80;;;17.88;;
25279;SDS011;13225;47.804;12.116;2023-03-01T06:44:55;43.97;;;18.45;;
25279;SDS011;13225;47.804;12.116;2023-03-01T06:47:20;38.65;;;16.60;;
25279;SDS011;13225;47.804;12.116;2023-03-01T06:49:46;43.03;;;18.95;;
25279;SDS011;13225;47.804;12.116;2023-03-01T06:52:12;34.95;;;15.18;;
25279;SDS011;13225;47.804;12.116;2023-03-01T06:54:37;45.08;;;20.27;;
25279;SDS011;13225;47.804;12.116;2023-03-01T06:57:05;40.20;;;17.65;;
25279;SDS011;13225;47.804;12.116;2023-03-01T06:59:30;38.70;;;16.42;;
25279;SDS011;13225;47.804;12.116;2023-03-01T07:01:56;40.20;;;17.20;;
25279;SDS011;13225;47.804;12.116;2023-03-01T07:04:22;40.08;;;16.58;;
25279;SDS011;13225;47.804;12.116;2023-03-01T07:06:47;41.00;;;16.45;;
25279;SDS011;13225;47.804;12.116;2023-03-01T07:09:19;31.80;;;13.25;;
25279;SDS011;13225;47.804;12.116;2023-03-01T07:11:48;41.78;;;15.85;;
25279;SDS011;13225;47.804;12.116;2023-03-01T07:14:14;45.72;;;18.17;;
25279;SDS011;13225;47.804;12.116;2023-03-01T07:16:40;43.53;;;19.55;;
25279;SDS011;13225;47.804;12.116;2023-03-01T07:19:06;52.05;;;22.45;;
25279;SDS011;13225;47.804;12.116;2023-03-01T07:21:32;42.22;;;18.63;;
25279;SDS011;13225;47.804;12.116;2023-03-01T07:23:59;53.22;;;22.70;;
25279;SDS011;13225;47.804;12.116;2023-03-01T07:26:25;55.00;;;24.35;;
25279;SDS011;13225;47.804;12.116;2023-03-01T07:28:50;46.10;;;21.20;;
25279;SDS011;13225;47.804;12.116;2023-03-01T07:31:16;54.03;;;23.52;;
25279;SDS011;13225;47.804;12.116;2023-03-01T07:33:41;39.28;;;17.85;;
25279;SDS011;13225;47.804;12.116;2023-03-01T07:36:07;38.60;;;19.35;;
25279;SDS011;13225;47.804;12.116;2023-03-01T07:38:34;44.72;;;19.75;;
25279;SDS011;13225;47.804;12.116;2023-03-01T07:41:00;51.20;;;19.88;;
25279;SDS011;13225;47.804;12.116;2023-03-01T07:43:28;56.97;;;21.30;;
25279;SDS011;13225;47.804;12.116;2023-03-01T07:45:54;78.68;;;29.63;;
25279;SDS011;13225;47.804;12.116;2023-03-01T07:48:22;60.90;;;27.70;;
25279;SDS011;13225;47.804;12.116;2023-03-01T07:50:48;33.70;;;16.52;;
25279;SDS011;13225;47.804;12.116;2023-03-01T07:53:14;43.92;;;21.60;;
25279;SDS011;13225;47.804;12.116;2023-03-01T07:55:40;38.90;;;18.70;;
25279;SDS011;13225;47.804;12.116;2023-03-01T07:58:05;44.88;;;21.13;;
25279;SDS011;13225;47.804;12.116;2023-03-01T08:00:31;43.25;;;19.30;;
25279;SDS011;13225;47.804;12.116;2023-03-01T08:03:00;39.78;;;19.08;;
25279;SDS011;13225;47.804;12.116;2023-03-01T08:05:26;40.72;;;17.25;;
25279;SDS011;13225;47.804;12.116;2023-03-01T08:07:52;28.00;;;12.15;;
25279;SDS011;13225;47.804;12.116;2023-03-01T08:10:18;35.70;;;17.73;;
25279;SDS011;13225;47.804;12.116;2023-03-01T08:12:44;33.08;;;16.85;;
25279;SDS011;13225;47.804;12.116;2023-03-01T08:15:09;36.70;;;15.45;;
25279;SDS011;13225;47.804;12.116;2023-03-01T08:17:35;38.90;;;18.00;;
25279;SDS011;13225;47.804;12.116;2023-03-01T08:20:01;37.13;;;16.15;;
25279;SDS011;13225;47.804;12.116;2023-03-01T08:22:29;38.53;;;18.45;;
25279;SDS011;13225;47.804;12.116;2023-03-01T08:24:54;42.08;;;18.35;;
25279;SDS011;13225;47.804;12.116;2023-03-01T08:27:20;40.53;;;18.30;;
25279;SDS011;13225;47.804;12.116;2023-03-01T08:29:46;37.58;;;18.58;;
25279;SDS011;13225;47.804;12.116;2023-03-01T08:32:12;40.35;;;18.02;;
25279;SDS011;13225;47.804;12.116;2023-03-01T08:34:37;35.25;;;18.42;;
25279;SDS011;13225;47.804;12.116;2023-03-01T08:37:03;34.83;;;17.85;;
25279;SDS011;13225;47.804;12.116;2023-03-01T08:39:28;66.72;;;19.70;;
25279;SDS011;13225;47.804;12.116;2023-03-01T08:41:54;40.45;;;16.92;;
25279;SDS011;13225;47.804;12.116;2023-03-01T08:44:20;49.47;;;20.10;;
25279;SDS011;13225;47.804;12.116;2023-03-01T08:46:46;49.03;;;20.98;;
25279;SDS011;13225;47.804;12.116;2023-03-01T08:49:13;39.95;;;18.75;;
25279;SDS011;13225;47.804;12.116;2023-03-01T08:51:40;44.05;;;20.08;;
25279;SDS011;13225;47.804;12.116;2023-03-01T08:54:07;46.95;;;20.55;;
25279;SDS011;13225;47.804;12.116;2023-03-01T08:56:36;49.15;;;19.48;;
25279;SDS011;13225;47.804;12.116;2023-03-01T08:59:02;41.67;;;20.65;;
25279;SDS011;13225;47.804;12.116;2023-03-01T09:01:28;40.38;;;19.15;;
25279;SDS011;13225;47.804;12.116;2023-03-01T09:03:54;38.88;;;17.63;;
25279;SDS011;13225;47.804;12.116;2023-03-01T09:06:19;38.83;;;18.73;;
25279;SDS011;13225;47.804;12.116;2023-03-01T09:08:46;37.25;;;17.98;;
25279;SDS011;13225;47.804;12.116;2023-03-01T09:11:14;38.05;;;18.45;;
25279;SDS011;13225;47.804;12.116;2023-03-01T09:13:45;47.70;;;19.27;;
25279;SDS011;13225;47.804;12.116;2023-03-01T09:16:12;40.45;;;18.75;;
25279;SDS011;13225;47.804;12.116;2023-03-01T09:18:39;37.63;;;19.25;;
25279;SDS011;13225;47.804;12.116;2023-03-01T09:23:34;41.53;;;19.55;;
25279;SDS011;13225;47.804;12.116;2023-03-01T09:26:04;39.78;;;19.77;;
25279;SDS011;13225;47.804;12.116;2023-03-01T09:28:30;41.08;;;20.42;;
25279;SDS011;13225;47.804;12.116;2023-03-01T09:30:59;35.63;;;18.88;;
25279;SDS011;13225;47.804;12.116;2023-03-01T09:33:26;35.85;;;18.08;;
25279;SDS011;13225;47.804;12.116;2023-03-01T09:35:58;35.00;;;17.63;;
25279;SDS011;13225;47.804;12.116;2023-03-01T09:38:25;35.03;;;16.70;;
25279;SDS011;13225;47.804;12.116;2023-03-01T09:40:50;34.40;;;17.73;;
25279;SDS011;13225;47.804;12.116;2023-03-01T09:46:09;32.37;;;14.77;;
25279;SDS011;13225;47.804;12.116;2023-03-01T09:48:46;42.92;;;19.75;;
25279;SDS011;13225;47.804;12.116;2023-03-01T09:51:41;34.10;;;16.25;;
25279;SDS011;13225;47.804;12.116;2023-03-01T09:54:06;36.80;;;17.98;;
25279;SDS011;13225;47.804;12.116;2023-03-01T09:56:46;45.00;;;17.88;;
25279;SDS011;13225;47.804;12.116;2023-03-01T09:59:26;36.60;;;17.48;;
25279;SDS011;13225;47.804;12.116;2023-03-01T10:02:01;39.53;;;19.55;;
25279;SDS011;13225;47.804;12.116;2023-03-01T10:09:47;34.15;;;14.27;;
25279;SDS011;13225;47.804;12.116;2023-03-01T10:12:20;30.83;;;13.48;;
25279;SDS011;13225;47.804;12.116;2023-03-01T10:14:57;38.30;;;18.23;;
25279;SDS011;13225;47.804;12.116;2023-03-01T10:17:41;35.42;;;15.88;;
25279;SDS011;13225;47.804;12.116;2023-03-01T10:22:49;37.13;;;15.75;;
25279;SDS011;13225;47.804;12.116;2023-03-01T10:28:10;29.48;;;12.32;;
25279;SDS011;13225;47.804;12.116;2023-03-01T10:30:47;30.38;;;13.95;;
25279;SDS011;13225;47.804;12.116;2023-03-01T10:33:22;22.63;;;11.00;;
25279;SDS011;13225;47.804;12.116;2023-03-01T10:35:49;30.10;;;15.07;;
25279;SDS011;13225;47.804;12.116;2023-03-01T10:38:16;35.88;;;17.42;;
25279;SDS011;13225;47.804;12.116;2023-03-01T10:40:58;19.70;;;9.15;;
25279;SDS011;13225;47.804;12.116;2023-03-01T10:43:52;39.80;;;16.15;;
25279;SDS011;13225;47.804;12.116;2023-03-01T10:49:14;25.23;;;11.52;;
25279;SDS011;13225;47.804;12.116;2023-03-01T10:51:42;13.88;;;6.35;;
25279;SDS011;13225;47.804;12.116;2023-03-01T10:56:54;33.10;;;15.15;;
25279;SDS011;13225;47.804;12.116;2023-03-01T10:59:22;31.48;;;13.38;;
25279;SDS011;13225;47.804;12.116;2023-03-01T11:04:34;33.58;;;15.65;;
25279;SDS011;13225;47.804;12.116;2023-03-01T11:07:01;36.78;;;16.80;;
25279;SDS011;13225;47.804;12.116;2023-03-01T11:09:30;39.38;;;19.10;;
25279;SDS011;13225;47.804;12.116;2023-03-01T11:12:03;27.02;;;12.70;;
25279;SDS011;13225;47.804;12.116;2023-03-01T11:14:38;34.33;;;16.30;;
25279;SDS011;13225;47.804;12.116;2023-03-01T11:17:15;30.73;;;13.73;;
25279;SDS011;13225;47.804;12.116;2023-03-01T11:22:41;35.55;;;16.38;;
25279;SDS011;13225;47.804;12.116;2023-03-01T11:25:23;30.77;;;13.80;;
25279;SDS011;13225;47.804;12.116;2023-03-01T11:27:56;30.02;;;13.93;;
25279;SDS011;13225;47.804;12.116;2023-03-01T11:30:28;33.28;;;14.82;;
25279;SDS011;13225;47.804;12.116;2023-03-01T11:33:13;31.58;;;15.80;;
25279;SDS011;13225;47.804;12.116;2023-03-01T11:35:50;30.98;;;14.40;;
25279;SDS011;13225;47.804;12.116;2023-03-01T11:38:36;37.33;;;16.73;;
25279;SDS011;13225;47.804;12.116;2023-03-01T11:41:23;27.80;;;11.80;;
25279;SDS011;13225;47.804;12.116;2023-03-01T11:46:53;33.03;;;15.82;;
25279;SDS011;13225;47.804;12.116;2023-03-01T11:49:36;31.48;;;14.63;;
25279;SDS011;13225;47.804;12.116;2023-03-01T11:55:24;25.95;;;11.68;;
25279;SDS011;13225;47.804;12.116;2023-03-01T12:06:40;29.25;;;12.88;;
25279;SDS011;13225;47.804;12.116;2023-03-01T12:25:58;38.78;;;17.27;;
25279;SDS011;13225;47.804;12.116;2023-03-01T12:34:38;34.67;;;13.65;;
25279;SDS011;13225;47.804;12.116;2023-03-01T12:45:47;50.67;;;17.75;;
25279;SDS011;13225;47.804;12.116;2023-03-01T12:48:51;34.33;;;14.80;;
25279;SDS011;13225;47.804;12.116;2023-03-01T12:51:20;36.22;;;16.63;;
25279;SDS011;13225;47.804;12.116;2023-03-01T12:53:53;38.92;;;17.15;;
25279;SDS011;13225;47.804;12.116;2023-03-01T12:56:21;36.45;;;16.38;;
25279;SDS011;13225;47.804;12.116;2023-03-01T13:04:52;43.50;;;20.45;;
25279;SDS011;13225;47.804;12.116;2023-03-01T13:07:03;29.08;;;14.05;;
25279;SDS011;13225;47.804;12.116;2023-03-01T13:17:52;30.67;;;16.50;;
25279;SDS011;13225;47.804;12.116;2023-03-01T13:20:20;30.00;;;14.10;;
25279;SDS011;13225;47.804;12.116;2023-03-01T13:33:49;34.10;;;17.45;;
25279;SDS011;13225;47.804;12.116;2023-03-01T13:36:57;32.30;;;16.25;;
25279;SDS011;13225;47.804;12.116;2023-03-01T13:41:54;28.63;;;15.55;;
25279;SDS011;13225;47.804;12.116;2023-03-01T13:44:36;27.77;;;15.07;;
25279;SDS011;13225;47.804;12.116;2023-03-01T13:47:12;25.88;;;14.35;;
25279;SDS011;13225;47.804;12.116;2023-03-01T13:49:49;30.58;;;16.33;;
25279;SDS011;13225;47.804;12.116;2023-03-01T13:52:44;25.90;;;15.35;;
25279;SDS011;13225;47.804;12.116;2023-03-01T13:55:15;27.90;;;15.82;;
25279;SDS011;13225;47.804;12.116;2023-03-01T13:57:49;31.73;;;17.23;;
25279;SDS011;13225;47.804;12.116;2023-03-01T14:03:02;34.28;;;17.20;;
25279;SDS011;13225;47.804;12.116;2023-03-01T14:05:28;31.55;;;16.92;;
25279;SDS011;13225;47.804;12.116;2023-03-01T14:07:55;29.38;;;15.93;;
25279;SDS011;13225;47.804;12.116;2023-03-01T14:10:20;28.92;;;15.75;;
25279;SDS011;13225;47.804;12.116;2023-03-01T14:12:51;31.85;;;16.42;;
25279;SDS011;13225;47.804;12.116;2023-03-01T14:18:04;28.98;;;16.35;;
25279;SDS011;13225;47.804;12.116;2023-03-01T14:20:40;29.60;;;16.67;;
25279;SDS011;13225;47.804;12.116;2023-03-01T14:23:17;31.67;;;17.40;;
25279;SDS011;13225;47.804;12.116;2023-03-01T14:25:52;29.55;;;16.42;;
25279;SDS011;13225;47.804;12.116;2023-03-01T14:28:29;29.27;;;16.50;;
25279;SDS011;13225;47.804;12.116;2023-03-01T14:30:59;29.42;;;15.95;;
25279;SDS011;13225;47.804;12.116;2023-03-01T14:33:29;30.63;;;16.63;;
25279;SDS011;13225;47.804;12.116;2023-03-01T14:36:11;28.95;;;16.30;;
25279;SDS011;13225;47.804;12.116;2023-03-01T14:38:39;29.17;;;17.20;;
25279;SDS011;13225;47.804;12.116;2023-03-01T14:41:16;29.33;;;16.38;;
25279;SDS011;13225;47.804;12.116;2023-03-01T14:43:50;28.13;;;16.25;;
25279;SDS011;13225;47.804;12.116;2023-03-01T14:48:48;29.83;;;15.20;;
25279;SDS011;13225;47.804;12.116;2023-03-01T14:51:17;33.75;;;17.13;;
25279;SDS011;13225;47.804;12.116;2023-03-01T14:53:43;28.33;;;17.25;;
25279;SDS011;13225;47.804;12.116;2023-03-01T14:56:13;29.80;;;16.70;;
25279;SDS011;13225;47.804;12.116;2023-03-01T14:58:42;28.35;;;16.05;;
25279;SDS011;13225;47.804;12.116;2023-03-01T15:01:10;32.25;;;16.60;;
25279;SDS011;13225;47.804;12.116;2023-03-01T15:03:44;35.58;;;19.50;;
25279;SDS011;13225;47.804;12.116;2023-03-01T15:06:14;33.63;;;18.08;;
25279;SDS011;13225;47.804;12.116;2023-03-01T15:08:47;31.75;;;17.55;;
25279;SDS011;13225;47.804;12.116;2023-03-01T15:11:31;35.20;;;18.48;;
25279;SDS011;13225;47.804;12.116;2023-03-01T15:13:58;30.10;;;16.13;;
25279;SDS011;13225;47.804;12.116;2023-03-01T15:16:25;36.90;;;18.27;;
25279;SDS011;13225;47.804;12.116;2023-03-01T15:18:56;39.70;;;16.92;;
25279;SDS011;13225;47.804;12.116;2023-03-01T15:21:32;32.10;;;17.25;;
25279;SDS011;13225;47.804;12.116;2023-03-01T15:24:05;32.05;;;16.65;;
25279;SDS011;13225;47.804;12.116;2023-03-01T15:26:50;32.00;;;17.15;;
25279;SDS011;13225;47.804;12.116;2023-03-01T15:29:19;32.20;;;17.02;;
25279;SDS011;13225;47.804;12.116;2023-03-01T15:32:05;35.67;;;17.67;;
25279;SDS011;13225;47.804;12.116;2023-03-01T15:34:50;34.77;;;17.57;;
25279;SDS011;13225;47.804;12.116;2023-03-01T15:37:36;50.20;;;21.83;;
25279;SDS011;13225;47.804;12.116;2023-03-01T15:40:18;60.95;;;24.17;;
25279;SDS011;13225;47.804;12.116;2023-03-01T15:42:59;38.38;;;18.15;;
25279;SDS011;13225;47.804;12.116;2023-03-01T15:45:28;38.75;;;18.05;;
25279;SDS011;13225;47.804;12.116;2023-03-01T15:47:56;45.58;;;20.85;;
25279;SDS011;13225;47.804;12.116;2023-03-01T15:50:28;35.13;;;16.80;;
25279;SDS011;13225;47.804;12.116;2023-03-01T15:52:58;36.08;;;17.85;;
25279;SDS011;13225;47.804;12.116;2023-03-01T15:55:29;40.55;;;17.70;;
25279;SDS011;13225;47.804;12.116;2023-03-01T15:58:31;35.47;;;17.48;;
25279;SDS011;13225;47.804;12.116;2023-03-01T16:00:50;39.67;;;17.17;;
25279;SDS011;13225;47.804;12.116;2023-03-01T16:03:21;39.53;;;18.73;;
25279;SDS011;13225;47.804;12.116;2023-03-01T16:05:48;40.05;;;18.48;;
25279;SDS011;13225;47.804;12.116;2023-03-01T16:08:15;38.30;;;18.10;;
25279;SDS011;13225;47.804;12.116;2023-03-01T16:10:41;41.65;;;18.23;;
25279;SDS011;13225;47.804;12.116;2023-03-01T16:13:10;42.63;;;18.35;;
25279;SDS011;13225;47.804;12.116;2023-03-01T16:15:36;41.47;;;17.80;;
25279;SDS011;13225;47.804;12.116;2023-03-01T16:18:03;37.35;;;17.25;;
25279;SDS011;13225;47.804;12.116;2023-03-01T16:20:30;39.22;;;17.73;;
25279;SDS011;13225;47.804;12.116;2023-03-01T16:23:00;39.85;;;17.83;;